sensor_id;sensor_type;location;lat;lon;timestamp;temperature;humidity
578;DHT22;275;48.492;9.214;2023-07-31T00:01:55;18.60;36.30
578;DHT22;275;48.492;9.214;2023-07-31T00:04:22;18.50;36.30
578;DHT22;275;48.492;9.214;2023-07-31T00:06:48;18.50;36.10
578;DHT22;275;48.492;9.214;2023-07-31T00:09:15;18.50;36.20
578;DHT22;275;48.492;9.214;2023-07-31T00:11:42;18.70;35.60
578;DHT22;275;48.492;9.214;2023-07-31T00:14:10;19.00;34.90
578;DHT22;275;48.492;9.214;2023-07-31T00:16:37;18.70;36.10
578;DHT22;275;48.492;9.214;2023-07-31T00:19:04;18.80;35.50
578;DHT22;275;48.492;9.214;2023-07-31T00:21:30;18.70;35.80
578;DHT22;275;48.492;9.214;2023-07-31T00:23:57;18.50;36.00
578;DHT22;275;48.492;9.214;2023-07-31T00:26:24;18.40;36.40
578;DHT22;275;48.492;9.214;2023-07-31T00:28:51;18.40;36.60
578;DHT22;275;48.492;9.214;2023-07-31T00:31:19;18.50;36.20
578;DHT22;275;48.492;9.214;2023-07-31T00:33:46;18.10;37.30
578;DHT22;275;48.492;9.214;2023-07-31T00:36:12;18.20;37.30
578;DHT22;275;48.492;9.214;2023-07-31T00:38:39;18.40;36.70
578;DHT22;275;48.492;9.214;2023-07-31T00:41:06;18.60;35.90
578;DHT22;275;48.492;9.214;2023-07-31T00:43:33;18.70;35.50
578;DHT22;275;48.492;9.214;2023-07-31T00:46:00;18.90;34.80
578;DHT22;275;48.492;9.214;2023-07-31T00:48:28;19.00;34.70
578;DHT22;275;48.492;9.214;2023-07-31T00:50:55;18.60;35.90
578;DHT22;275;48.492;9.214;2023-07-31T00:53:22;18.20;36.80
578;DHT22;275;48.492;9.214;2023-07-31T00:55:51;18.40;36.30
578;DHT22;275;48.492;9.214;2023-07-31T00:58:18;18.60;35.80
578;DHT22;275;48.492;9.214;2023-07-31T01:00:45;18.50;36.10
578;DHT22;275;48.492;9.214;2023-07-31T01:03:12;18.10;37.20
578;DHT22;275;48.492;9.214;2023-07-31T01:05:49;18.00;37.60
578;DHT22;275;48.492;9.214;2023-07-31T01:08:24;18.00;37.40
578;DHT22;275;48.492;9.214;2023-07-31T01:10:59;18.20;36.90
578;DHT22;275;48.492;9.214;2023-07-31T01:13:28;18.50;36.20
578;DHT22;275;48.492;9.214;2023-07-31T01:15:55;18.60;35.80
578;DHT22;275;48.492;9.214;2023-07-31T01:18:22;18.80;35.20
578;DHT22;275;48.492;9.214;2023-07-31T01:20:54;18.60;35.70
578;DHT22;275;48.492;9.214;2023-07-31T01:23:40;18.50;36.00
578;DHT22;275;48.492;9.214;2023-07-31T01:26:17;18.70;35.30
578;DHT22;275;48.492;9.214;2023-07-31T01:28:52;18.60;35.60
578;DHT22;275;48.492;9.214;2023-07-31T01:31:22;18.60;35.70
578;DHT22;275;48.492;9.214;2023-07-31T01:33:50;18.40;36.20
578;DHT22;275;48.492;9.214;2023-07-31T01:36:19;18.50;36.20
578;DHT22;275;48.492;9.214;2023-07-31T01:38:46;18.20;36.80
578;DHT22;275;48.492;9.214;2023-07-31T01:41:16;17.80;37.90
578;DHT22;275;48.492;9.214;2023-07-31T01:43:43;18.00;37.70
578;DHT22;275;48.492;9.214;2023-07-31T01:46:10;18.40;36.50
578;DHT22;275;48.492;9.214;2023-07-31T01:48:37;18.60;35.60
578;DHT22;275;48.492;9.214;2023-07-31T01:51:04;18.70;35.30
578;DHT22;275;48.492;9.214;2023-07-31T01:53:31;18.40;36.10
578;DHT22;275;48.492;9.214;2023-07-31T01:55:58;18.40;36.20
578;DHT22;275;48.492;9.214;2023-07-31T01:58:26;18.10;37.00
578;DHT22;275;48.492;9.214;2023-07-31T02:00:53;18.30;36.80
578;DHT22;275;48.492;9.214;2023-07-31T02:03:20;18.40;36.50
578;DHT22;275;48.492;9.214;2023-07-31T02:05:47;18.60;35.70
578;DHT22;275;48.492;9.214;2023-07-31T02:08:15;18.70;35.50
578;DHT22;275;48.492;9.214;2023-07-31T02:10:42;18.70;35.50
578;DHT22;275;48.492;9.214;2023-07-31T02:13:09;18.80;35.30
578;DHT22;275;48.492;9.214;2023-07-31T02:15:37;18.90;34.80
578;DHT22;275;48.492;9.214;2023-07-31T02:18:04;18.90;34.80
578;DHT22;275;48.492;9.214;2023-07-31T02:20:33;19.00;34.70
578;DHT22;275;48.492;9.214;2023-07-31T02:23:00;19.00;34.80
578;DHT22;275;48.492;9.214;2023-07-31T02:25:27;18.80;34.80
578;DHT22;275;48.492;9.214;2023-07-31T02:27:54;18.70;35.30
578;DHT22;275;48.492;9.214;2023-07-31T02:30:21;18.50;35.60
578;DHT22;275;48.492;9.214;2023-07-31T02:32:49;18.50;35.70
578;DHT22;275;48.492;9.214;2023-07-31T02:35:16;18.50;35.90
578;DHT22;275;48.492;9.214;2023-07-31T02:37:44;18.40;35.80
578;DHT22;275;48.492;9.214;2023-07-31T02:40:11;18.30;36.20
578;DHT22;275;48.492;9.214;2023-07-31T02:42:38;18.30;36.10
578;DHT22;275;48.492;9.214;2023-07-31T02:45:06;18.10;36.40
578;DHT22;275;48.492;9.214;2023-07-31T02:47:33;17.90;37.10
578;DHT22;275;48.492;9.214;2023-07-31T02:50:01;17.70;37.70
578;DHT22;275;48.492;9.214;2023-07-31T02:52:28;17.60;37.80
578;DHT22;275;48.492;9.214;2023-07-31T02:54:55;18.00;36.60
578;DHT22;275;48.492;9.214;2023-07-31T02:57:22;17.80;37.30
578;DHT22;275;48.492;9.214;2023-07-31T02:59:49;17.80;37.30
578;DHT22;275;48.492;9.214;2023-07-31T03:02:15;18.00;36.90
578;DHT22;275;48.492;9.214;2023-07-31T03:04:42;18.10;36.50
578;DHT22;275;48.492;9.214;2023-07-31T03:07:10;18.30;36.00
578;DHT22;275;48.492;9.214;2023-07-31T03:09:37;18.50;35.40
578;DHT22;275;48.492;9.214;2023-07-31T03:12:04;18.50;35.30
578;DHT22;275;48.492;9.214;2023-07-31T03:14:31;18.40;35.30
578;DHT22;275;48.492;9.214;2023-07-31T03:16:58;18.50;35.30
578;DHT22;275;48.492;9.214;2023-07-31T03:19:25;18.60;34.80
578;DHT22;275;48.492;9.214;2023-07-31T03:21:52;18.70;34.80
578;DHT22;275;48.492;9.214;2023-07-31T03:24:20;18.60;35.30
578;DHT22;275;48.492;9.214;2023-07-31T03:26:47;18.50;35.10
578;DHT22;275;48.492;9.214;2023-07-31T03:29:14;18.60;35.90
578;DHT22;275;48.492;9.214;2023-07-31T03:31:41;18.70;36.10
578;DHT22;275;48.492;9.214;2023-07-31T03:34:07;18.60;36.80
578;DHT22;275;48.492;9.214;2023-07-31T03:36:34;18.50;37.20
578;DHT22;275;48.492;9.214;2023-07-31T03:39:01;18.40;37.90
578;DHT22;275;48.492;9.214;2023-07-31T03:41:30;18.40;37.50
578;DHT22;275;48.492;9.214;2023-07-31T03:43:56;18.50;37.20
578;DHT22;275;48.492;9.214;2023-07-31T03:46:24;18.60;36.80
578;DHT22;275;48.492;9.214;2023-07-31T03:48:51;18.50;36.80
578;DHT22;275;48.492;9.214;2023-07-31T03:51:18;18.60;36.60
578;DHT22;275;48.492;9.214;2023-07-31T03:53:45;18.40;37.00
578;DHT22;275;48.492;9.214;2023-07-31T03:56:12;18.50;36.90
578;DHT22;275;48.492;9.214;2023-07-31T03:58:40;18.50;36.80
578;DHT22;275;48.492;9.214;2023-07-31T04:01:06;18.40;37.50
578;DHT22;275;48.492;9.214;2023-07-31T04:03:33;18.20;37.90
578;DHT22;275;48.492;9.214;2023-07-31T04:06:00;18.00;38.50
578;DHT22;275;48.492;9.214;2023-07-31T04:08:27;17.90;38.70
578;DHT22;275;48.492;9.214;2023-07-31T04:10:54;18.00;38.50
578;DHT22;275;48.492;9.214;2023-07-31T04:13:22;18.10;38.40
578;DHT22;275;48.492;9.214;2023-07-31T04:15:51;18.20;38.10
578;DHT22;275;48.492;9.214;2023-07-31T04:18:17;18.40;37.20
578;DHT22;275;48.492;9.214;2023-07-31T04:20:44;18.50;36.90
578;DHT22;275;48.492;9.214;2023-07-31T04:23:11;18.40;37.20
578;DHT22;275;48.492;9.214;2023-07-31T04:25:38;18.20;37.70
578;DHT22;275;48.492;9.214;2023-07-31T04:28:05;18.00;37.60
578;DHT22;275;48.492;9.214;2023-07-31T04:30:33;17.70;38.30
578;DHT22;275;48.492;9.214;2023-07-31T04:33:01;17.50;39.40
578;DHT22;275;48.492;9.214;2023-07-31T04:35:28;17.60;39.40
578;DHT22;275;48.492;9.214;2023-07-31T04:37:55;17.70;38.90
578;DHT22;275;48.492;9.214;2023-07-31T04:40:21;17.70;39.50
578;DHT22;275;48.492;9.214;2023-07-31T04:42:48;18.00;38.70
578;DHT22;275;48.492;9.214;2023-07-31T04:45:15;18.20;38.30
578;DHT22;275;48.492;9.214;2023-07-31T04:47:42;18.10;38.70
578;DHT22;275;48.492;9.214;2023-07-31T04:50:10;18.10;39.00
578;DHT22;275;48.492;9.214;2023-07-31T04:52:37;17.80;39.40
578;DHT22;275;48.492;9.214;2023-07-31T04:55:04;17.90;39.30
578;DHT22;275;48.492;9.214;2023-07-31T04:57:31;18.60;37.70
578;DHT22;275;48.492;9.214;2023-07-31T04:59:58;19.00;36.40
578;DHT22;275;48.492;9.214;2023-07-31T05:02:25;19.30;35.40
578;DHT22;275;48.492;9.214;2023-07-31T05:04:51;19.60;34.50
578;DHT22;275;48.492;9.214;2023-07-31T05:07:20;19.80;33.90
578;DHT22;275;48.492;9.214;2023-07-31T05:09:46;20.00;33.50
578;DHT22;275;48.492;9.214;2023-07-31T05:12:13;20.10;32.90
578;DHT22;275;48.492;9.214;2023-07-31T05:14:40;20.10;32.80
578;DHT22;275;48.492;9.214;2023-07-31T05:17:07;20.30;32.40
578;DHT22;275;48.492;9.214;2023-07-31T05:19:33;20.40;32.10
578;DHT22;275;48.492;9.214;2023-07-31T05:22:00;20.50;31.90
578;DHT22;275;48.492;9.214;2023-07-31T05:24:28;20.40;32.30
578;DHT22;275;48.492;9.214;2023-07-31T05:26:55;20.20;33.00
578;DHT22;275;48.492;9.214;2023-07-31T05:29:22;20.00;33.40
578;DHT22;275;48.492;9.214;2023-07-31T05:31:49;20.00;33.70
578;DHT22;275;48.492;9.214;2023-07-31T05:34:16;20.20;33.20
578;DHT22;275;48.492;9.214;2023-07-31T05:36:42;20.60;32.30
578;DHT22;275;48.492;9.214;2023-07-31T05:39:09;20.80;32.20
578;DHT22;275;48.492;9.214;2023-07-31T05:41:37;20.70;31.90
578;DHT22;275;48.492;9.214;2023-07-31T05:44:04;21.10;31.70
578;DHT22;275;48.492;9.214;2023-07-31T05:46:31;21.10;31.40
578;DHT22;275;48.492;9.214;2023-07-31T05:48:58;21.60;30.30
578;DHT22;275;48.492;9.214;2023-07-31T05:51:26;21.70;30.00
578;DHT22;275;48.492;9.214;2023-07-31T05:53:53;21.70;30.10
578;DHT22;275;48.492;9.214;2023-07-31T05:56:20;21.50;30.40
578;DHT22;275;48.492;9.214;2023-07-31T05:58:48;21.20;30.80
578;DHT22;275;48.492;9.214;2023-07-31T06:01:16;20.60;32.00
578;DHT22;275;48.492;9.214;2023-07-31T06:03:43;20.10;32.90
578;DHT22;275;48.492;9.214;2023-07-31T06:06:10;20.20;33.50
578;DHT22;275;48.492;9.214;2023-07-31T06:08:37;20.30;32.90
578;DHT22;275;48.492;9.214;2023-07-31T06:11:03;20.50;32.80
578;DHT22;275;48.492;9.214;2023-07-31T06:13:31;20.40;32.70
578;DHT22;275;48.492;9.214;2023-07-31T06:15:59;20.00;33.30
578;DHT22;275;48.492;9.214;2023-07-31T06:18:28;20.40;32.80
578;DHT22;275;48.492;9.214;2023-07-31T06:20:55;21.20;31.10
578;DHT22;275;48.492;9.214;2023-07-31T06:23:21;21.40;31.60
578;DHT22;275;48.492;9.214;2023-07-31T06:25:48;21.30;31.60
578;DHT22;275;48.492;9.214;2023-07-31T06:28:15;21.60;31.20
578;DHT22;275;48.492;9.214;2023-07-31T06:30:42;21.30;32.30
578;DHT22;275;48.492;9.214;2023-07-31T06:33:10;21.20;32.10
578;DHT22;275;48.492;9.214;2023-07-31T06:35:37;21.40;32.30
578;DHT22;275;48.492;9.214;2023-07-31T06:38:04;20.90;32.70
578;DHT22;275;48.492;9.214;2023-07-31T06:40:31;21.00;32.90
578;DHT22;275;48.492;9.214;2023-07-31T06:42:57;21.80;31.40
578;DHT22;275;48.492;9.214;2023-07-31T06:45:24;22.30;30.30
578;DHT22;275;48.492;9.214;2023-07-31T06:47:51;22.80;29.20
578;DHT22;275;48.492;9.214;2023-07-31T06:50:19;23.70;27.80
578;DHT22;275;48.492;9.214;2023-07-31T06:52:46;23.90;27.60
578;DHT22;275;48.492;9.214;2023-07-31T06:55:17;24.30;26.50
578;DHT22;275;48.492;9.214;2023-07-31T06:57:45;23.20;27.70
578;DHT22;275;48.492;9.214;2023-07-31T07:00:13;23.30;28.10
578;DHT22;275;48.492;9.214;2023-07-31T07:02:41;23.80;27.30
578;DHT22;275;48.492;9.214;2023-07-31T07:05:08;24.10;26.90
578;DHT22;275;48.492;9.214;2023-07-31T07:07:36;24.70;26.30
578;DHT22;275;48.492;9.214;2023-07-31T07:10:04;24.90;25.80
578;DHT22;275;48.492;9.214;2023-07-31T07:12:32;24.50;26.50
578;DHT22;275;48.492;9.214;2023-07-31T07:14:59;24.60;26.50
578;DHT22;275;48.492;9.214;2023-07-31T07:17:27;24.00;27.30
578;DHT22;275;48.492;9.214;2023-07-31T07:19:54;24.10;26.20
578;DHT22;275;48.492;9.214;2023-07-31T07:22:21;24.10;26.40
578;DHT22;275;48.492;9.214;2023-07-31T07:24:49;24.30;26.20
578;DHT22;275;48.492;9.214;2023-07-31T07:27:16;25.00;25.40
578;DHT22;275;48.492;9.214;2023-07-31T07:29:43;25.50;25.10
578;DHT22;275;48.492;9.214;2023-07-31T07:32:10;26.00;24.50
578;DHT22;275;48.492;9.214;2023-07-31T07:34:37;27.00;23.40
578;DHT22;275;48.492;9.214;2023-07-31T07:37:05;28.00;22.10
578;DHT22;275;48.492;9.214;2023-07-31T07:39:32;28.50;21.50
578;DHT22;275;48.492;9.214;2023-07-31T07:42:00;28.60;20.90
578;DHT22;275;48.492;9.214;2023-07-31T07:44:27;28.20;22.00
578;DHT22;275;48.492;9.214;2023-07-31T07:46:53;28.40;21.40
578;DHT22;275;48.492;9.214;2023-07-31T07:49:20;28.80;20.60
578;DHT22;275;48.492;9.214;2023-07-31T07:51:48;29.80;19.60
578;DHT22;275;48.492;9.214;2023-07-31T07:54:15;29.40;20.20
578;DHT22;275;48.492;9.214;2023-07-31T07:56:42;29.10;20.60
578;DHT22;275;48.492;9.214;2023-07-31T07:59:10;29.10;20.80
578;DHT22;275;48.492;9.214;2023-07-31T08:01:37;29.50;20.50
578;DHT22;275;48.492;9.214;2023-07-31T08:04:04;31.00;18.80
578;DHT22;275;48.492;9.214;2023-07-31T08:06:31;31.20;18.30
578;DHT22;275;48.492;9.214;2023-07-31T08:08:59;31.30;17.70
578;DHT22;275;48.492;9.214;2023-07-31T08:11:30;31.40;17.00
578;DHT22;275;48.492;9.214;2023-07-31T08:13:57;30.50;16.50
578;DHT22;275;48.492;9.214;2023-07-31T08:16:25;27.60;18.10
578;DHT22;275;48.492;9.214;2023-07-31T08:18:52;25.90;21.70
578;DHT22;275;48.492;9.214;2023-07-31T08:21:19;24.40;22.90
578;DHT22;275;48.492;9.214;2023-07-31T08:23:46;24.20;23.80
578;DHT22;275;48.492;9.214;2023-07-31T08:26:15;26.10;21.60
578;DHT22;275;48.492;9.214;2023-07-31T08:28:42;26.40;21.20
578;DHT22;275;48.492;9.214;2023-07-31T08:31:09;27.70;20.00
578;DHT22;275;48.492;9.214;2023-07-31T08:33:38;28.60;19.00
578;DHT22;275;48.492;9.214;2023-07-31T08:36:05;29.20;18.40
578;DHT22;275;48.492;9.214;2023-07-31T08:38:32;28.40;18.10
578;DHT22;275;48.492;9.214;2023-07-31T08:40:59;28.20;18.30
578;DHT22;275;48.492;9.214;2023-07-31T08:43:27;29.40;17.10
578;DHT22;275;48.492;9.214;2023-07-31T08:45:54;28.60;17.80
578;DHT22;275;48.492;9.214;2023-07-31T08:48:23;27.90;18.40
578;DHT22;275;48.492;9.214;2023-07-31T08:50:51;28.10;18.40
578;DHT22;275;48.492;9.214;2023-07-31T08:53:18;29.60;17.10
578;DHT22;275;48.492;9.214;2023-07-31T08:55:46;30.50;15.70
578;DHT22;275;48.492;9.214;2023-07-31T08:58:14;27.20;18.10
578;DHT22;275;48.492;9.214;2023-07-31T09:00:43;26.20;20.50
578;DHT22;275;48.492;9.214;2023-07-31T09:03:13;27.50;19.00
578;DHT22;275;48.492;9.214;2023-07-31T09:05:43;27.70;18.90
578;DHT22;275;48.492;9.214;2023-07-31T09:08:12;27.70;19.00
578;DHT22;275;48.492;9.214;2023-07-31T09:10:43;28.50;18.40
578;DHT22;275;48.492;9.214;2023-07-31T09:13:11;27.60;18.40
578;DHT22;275;48.492;9.214;2023-07-31T09:15:39;27.50;18.30
578;DHT22;275;48.492;9.214;2023-07-31T09:18:07;27.40;19.40
578;DHT22;275;48.492;9.214;2023-07-31T09:20:34;26.20;20.20
578;DHT22;275;48.492;9.214;2023-07-31T09:23:07;27.60;19.70
578;DHT22;275;48.492;9.214;2023-07-31T09:25:36;28.50;17.50
578;DHT22;275;48.492;9.214;2023-07-31T09:28:05;29.40;16.80
578;DHT22;275;48.492;9.214;2023-07-31T09:30:44;28.30;18.50
578;DHT22;275;48.492;9.214;2023-07-31T09:33:11;26.40;20.30
578;DHT22;275;48.492;9.214;2023-07-31T09:35:39;27.30;19.20
578;DHT22;275;48.492;9.214;2023-07-31T09:38:09;28.20;18.40
578;DHT22;275;48.492;9.214;2023-07-31T09:40:39;29.00;17.60
578;DHT22;275;48.492;9.214;2023-07-31T09:43:24;29.10;17.40
578;DHT22;275;48.492;9.214;2023-07-31T09:45:55;27.00;20.40
578;DHT22;275;48.492;9.214;2023-07-31T09:48:23;26.10;21.40
578;DHT22;275;48.492;9.214;2023-07-31T09:50:52;26.50;21.10
578;DHT22;275;48.492;9.214;2023-07-31T09:53:19;26.30;20.90
578;DHT22;275;48.492;9.214;2023-07-31T09:55:47;26.30;21.40
578;DHT22;275;48.492;9.214;2023-07-31T09:58:14;26.00;21.40
578;DHT22;275;48.492;9.214;2023-07-31T10:00:41;25.40;22.20
578;DHT22;275;48.492;9.214;2023-07-31T10:03:09;24.80;22.70
578;DHT22;275;48.492;9.214;2023-07-31T10:05:38;25.10;23.10
578;DHT22;275;48.492;9.214;2023-07-31T10:08:06;26.50;21.10
578;DHT22;275;48.492;9.214;2023-07-31T10:10:36;26.10;21.40
578;DHT22;275;48.492;9.214;2023-07-31T10:13:05;25.80;21.90
578;DHT22;275;48.492;9.214;2023-07-31T10:15:32;27.50;20.50
578;DHT22;275;48.492;9.214;2023-07-31T10:18:00;28.60;18.70
578;DHT22;275;48.492;9.214;2023-07-31T10:20:28;32.00;15.60
578;DHT22;275;48.492;9.214;2023-07-31T10:22:56;34.70;12.60
578;DHT22;275;48.492;9.214;2023-07-31T10:25:24;32.30;13.10
578;DHT22;275;48.492;9.214;2023-07-31T10:27:52;29.90;16.50
578;DHT22;275;48.492;9.214;2023-07-31T10:30:24;29.20;17.50
578;DHT22;275;48.492;9.214;2023-07-31T10:32:51;29.40;17.00
578;DHT22;275;48.492;9.214;2023-07-31T10:35:20;29.60;16.90
578;DHT22;275;48.492;9.214;2023-07-31T10:37:48;30.10;16.70
578;DHT22;275;48.492;9.214;2023-07-31T10:40:16;30.50;16.30
578;DHT22;275;48.492;9.214;2023-07-31T10:42:46;31.30;15.60
578;DHT22;275;48.492;9.214;2023-07-31T10:45:24;30.50;16.20
578;DHT22;275;48.492;9.214;2023-07-31T10:47:59;32.40;14.20
578;DHT22;275;48.492;9.214;2023-07-31T10:50:28;31.00;15.50
578;DHT22;275;48.492;9.214;2023-07-31T10:52:56;32.40;14.30
578;DHT22;275;48.492;9.214;2023-07-31T10:55:28;34.40;12.70
578;DHT22;275;48.492;9.214;2023-07-31T10:57:57;36.20;10.20
578;DHT22;275;48.492;9.214;2023-07-31T11:00:26;33.00;12.70
578;DHT22;275;48.492;9.214;2023-07-31T11:02:59;34.70;11.90
578;DHT22;275;48.492;9.214;2023-07-31T11:05:41;36.40;10.40
578;DHT22;275;48.492;9.214;2023-07-31T11:08:13;35.80;10.70
578;DHT22;275;48.492;9.214;2023-07-31T11:10:40;35.40;10.30
578;DHT22;275;48.492;9.214;2023-07-31T11:13:07;32.50;11.90
578;DHT22;275;48.492;9.214;2023-07-31T11:15:34;33.80;12.20
578;DHT22;275;48.492;9.214;2023-07-31T11:18:03;33.70;12.30
578;DHT22;275;48.492;9.214;2023-07-31T11:20:31;32.90;13.00
578;DHT22;275;48.492;9.214;2023-07-31T11:23:00;34.60;11.30
578;DHT22;275;48.492;9.214;2023-07-31T11:25:29;33.90;11.50
578;DHT22;275;48.492;9.214;2023-07-31T11:27:56;31.40;14.00
578;DHT22;275;48.492;9.214;2023-07-31T11:30:23;29.60;15.30
578;DHT22;275;48.492;9.214;2023-07-31T11:32:50;28.10;17.60
578;DHT22;275;48.492;9.214;2023-07-31T11:35:19;27.80;18.10
578;DHT22;275;48.492;9.214;2023-07-31T11:37:45;28.50;17.90
578;DHT22;275;48.492;9.214;2023-07-31T11:40:12;30.10;15.90
578;DHT22;275;48.492;9.214;2023-07-31T11:42:39;31.20;14.60
578;DHT22;275;48.492;9.214;2023-07-31T11:45:07;31.40;14.60
578;DHT22;275;48.492;9.214;2023-07-31T11:47:35;30.70;15.50
578;DHT22;275;48.492;9.214;2023-07-31T11:50:03;32.00;14.20
578;DHT22;275;48.492;9.214;2023-07-31T11:52:36;31.80;13.40
578;DHT22;275;48.492;9.214;2023-07-31T11:55:05;30.70;15.00
578;DHT22;275;48.492;9.214;2023-07-31T11:57:35;30.40;15.20
578;DHT22;275;48.492;9.214;2023-07-31T12:00:03;30.00;15.80
578;DHT22;275;48.492;9.214;2023-07-31T12:02:31;30.30;15.60
578;DHT22;275;48.492;9.214;2023-07-31T12:04:58;30.80;15.20
578;DHT22;275;48.492;9.214;2023-07-31T12:07:25;30.60;15.30
578;DHT22;275;48.492;9.214;2023-07-31T12:09:54;29.80;16.50
578;DHT22;275;48.492;9.214;2023-07-31T12:12:22;28.70;17.70
578;DHT22;275;48.492;9.214;2023-07-31T12:14:50;28.40;18.70
578;DHT22;275;48.492;9.214;2023-07-31T12:17:17;28.10;18.80
578;DHT22;275;48.492;9.214;2023-07-31T12:19:45;27.90;19.60
578;DHT22;275;48.492;9.214;2023-07-31T12:22:13;27.60;20.90
578;DHT22;275;48.492;9.214;2023-07-31T12:24:40;27.70;20.00
578;DHT22;275;48.492;9.214;2023-07-31T12:27:12;27.10;20.70
578;DHT22;275;48.492;9.214;2023-07-31T12:29:41;27.20;20.60
578;DHT22;275;48.492;9.214;2023-07-31T12:32:21;27.10;21.50
578;DHT22;275;48.492;9.214;2023-07-31T12:34:49;26.90;21.50
578;DHT22;275;48.492;9.214;2023-07-31T12:37:16;26.90;21.20
578;DHT22;275;48.492;9.214;2023-07-31T12:39:43;27.80;20.00
578;DHT22;275;48.492;9.214;2023-07-31T12:42:11;28.40;19.40
578;DHT22;275;48.492;9.214;2023-07-31T12:44:38;28.60;18.90
578;DHT22;275;48.492;9.214;2023-07-31T12:47:05;29.60;18.10
578;DHT22;275;48.492;9.214;2023-07-31T12:49:32;30.20;17.30
578;DHT22;275;48.492;9.214;2023-07-31T12:51:59;30.30;17.20
578;DHT22;275;48.492;9.214;2023-07-31T12:54:25;31.00;16.20
578;DHT22;275;48.492;9.214;2023-07-31T12:56:52;31.10;15.90
578;DHT22;275;48.492;9.214;2023-07-31T12:59:20;31.30;15.40
578;DHT22;275;48.492;9.214;2023-07-31T13:01:47;32.20;14.80
578;DHT22;275;48.492;9.214;2023-07-31T13:04:14;32.90;13.80
578;DHT22;275;48.492;9.214;2023-07-31T13:06:41;31.40;15.50
578;DHT22;275;48.492;9.214;2023-07-31T13:09:08;29.60;17.40
578;DHT22;275;48.492;9.214;2023-07-31T13:11:35;29.00;18.70
578;DHT22;275;48.492;9.214;2023-07-31T13:14:01;29.20;18.10
578;DHT22;275;48.492;9.214;2023-07-31T13:16:30;29.30;17.70
578;DHT22;275;48.492;9.214;2023-07-31T13:18:56;29.60;17.40
578;DHT22;275;48.492;9.214;2023-07-31T13:21:23;29.30;17.80
578;DHT22;275;48.492;9.214;2023-07-31T13:23:50;29.70;17.50
578;DHT22;275;48.492;9.214;2023-07-31T13:26:17;29.10;18.20
578;DHT22;275;48.492;9.214;2023-07-31T13:28:44;29.90;17.50
578;DHT22;275;48.492;9.214;2023-07-31T13:31:11;29.90;17.30
578;DHT22;275;48.492;9.214;2023-07-31T13:33:39;29.40;17.90
578;DHT22;275;48.492;9.214;2023-07-31T13:36:05;28.70;18.70
578;DHT22;275;48.492;9.214;2023-07-31T13:38:32;29.20;18.50
578;DHT22;275;48.492;9.214;2023-07-31T13:40:59;28.60;18.70
578;DHT22;275;48.492;9.214;2023-07-31T13:43:26;28.60;19.20
578;DHT22;275;48.492;9.214;2023-07-31T13:45:53;29.20;18.20
578;DHT22;275;48.492;9.214;2023-07-31T13:48:19;29.10;17.80
578;DHT22;275;48.492;9.214;2023-07-31T13:50:48;28.60;18.20
578;DHT22;275;48.492;9.214;2023-07-31T13:53:15;27.60;19.10
578;DHT22;275;48.492;9.214;2023-07-31T13:55:41;27.10;20.10
578;DHT22;275;48.492;9.214;2023-07-31T13:58:11;26.60;20.50
578;DHT22;275;48.492;9.214;2023-07-31T14:00:37;26.20;21.10
578;DHT22;275;48.492;9.214;2023-07-31T14:03:04;25.70;21.90
578;DHT22;275;48.492;9.214;2023-07-31T14:05:31;26.00;21.50
578;DHT22;275;48.492;9.214;2023-07-31T14:07:59;26.20;21.50
578;DHT22;275;48.492;9.214;2023-07-31T14:10:26;26.00;22.30
578;DHT22;275;48.492;9.214;2023-07-31T14:12:53;26.00;21.80
578;DHT22;275;48.492;9.214;2023-07-31T14:15:19;26.30;21.70
578;DHT22;275;48.492;9.214;2023-07-31T14:17:46;25.80;22.00
578;DHT22;275;48.492;9.214;2023-07-31T14:20:13;26.50;21.40
578;DHT22;275;48.492;9.214;2023-07-31T14:22:40;26.60;20.50
578;DHT22;275;48.492;9.214;2023-07-31T14:25:08;25.40;22.90
578;DHT22;275;48.492;9.214;2023-07-31T14:27:36;24.80;23.70
578;DHT22;275;48.492;9.214;2023-07-31T14:30:03;25.00;23.60
578;DHT22;275;48.492;9.214;2023-07-31T14:32:30;25.30;23.20
578;DHT22;275;48.492;9.214;2023-07-31T14:34:57;25.80;22.80
578;DHT22;275;48.492;9.214;2023-07-31T14:37:26;26.00;22.30
578;DHT22;275;48.492;9.214;2023-07-31T14:39:53;26.30;22.00
578;DHT22;275;48.492;9.214;2023-07-31T14:42:21;25.90;22.60
578;DHT22;275;48.492;9.214;2023-07-31T14:44:48;25.40;23.20
578;DHT22;275;48.492;9.214;2023-07-31T14:47:14;25.20;23.60
578;DHT22;275;48.492;9.214;2023-07-31T14:49:41;25.10;24.00
578;DHT22;275;48.492;9.214;2023-07-31T14:52:08;25.90;23.00
578;DHT22;275;48.492;9.214;2023-07-31T14:54:35;26.30;22.20
578;DHT22;275;48.492;9.214;2023-07-31T14:57:02;25.60;23.00
578;DHT22;275;48.492;9.214;2023-07-31T14:59:30;25.80;22.70
578;DHT22;275;48.492;9.214;2023-07-31T15:01:57;25.20;24.40
578;DHT22;275;48.492;9.214;2023-07-31T15:04:23;25.60;23.20
578;DHT22;275;48.492;9.214;2023-07-31T15:09:18;26.40;22.20
578;DHT22;275;48.492;9.214;2023-07-31T15:11:44;26.70;22.40
578;DHT22;275;48.492;9.214;2023-07-31T15:14:11;26.50;21.80
578;DHT22;275;48.492;9.214;2023-07-31T15:16:39;25.90;22.80
578;DHT22;275;48.492;9.214;2023-07-31T15:19:06;26.30;22.30
578;DHT22;275;48.492;9.214;2023-07-31T15:21:33;26.60;22.00
578;DHT22;275;48.492;9.214;2023-07-31T15:24:00;26.00;22.80
578;DHT22;275;48.492;9.214;2023-07-31T15:26:27;26.00;22.70
578;DHT22;275;48.492;9.214;2023-07-31T15:28:57;25.70;23.30
578;DHT22;275;48.492;9.214;2023-07-31T15:31:26;25.80;23.30
578;DHT22;275;48.492;9.214;2023-07-31T15:33:54;26.10;22.80
578;DHT22;275;48.492;9.214;2023-07-31T15:36:21;26.30;22.40
578;DHT22;275;48.492;9.214;2023-07-31T15:38:48;26.50;22.40
578;DHT22;275;48.492;9.214;2023-07-31T15:41:16;26.80;21.80
578;DHT22;275;48.492;9.214;2023-07-31T15:43:43;27.30;21.40
578;DHT22;275;48.492;9.214;2023-07-31T15:46:10;26.80;22.00
578;DHT22;275;48.492;9.214;2023-07-31T15:48:37;26.10;22.70
578;DHT22;275;48.492;9.214;2023-07-31T15:51:05;25.50;23.40
578;DHT22;275;48.492;9.214;2023-07-31T15:53:32;25.70;23.40
578;DHT22;275;48.492;9.214;2023-07-31T15:55:59;26.30;22.60
578;DHT22;275;48.492;9.214;2023-07-31T15:58:26;26.50;22.30
578;DHT22;275;48.492;9.214;2023-07-31T16:00:53;26.90;21.80
578;DHT22;275;48.492;9.214;2023-07-31T16:03:20;26.30;22.20
578;DHT22;275;48.492;9.214;2023-07-31T16:05:47;26.00;23.00
578;DHT22;275;48.492;9.214;2023-07-31T16:08:15;25.30;24.10
578;DHT22;275;48.492;9.214;2023-07-31T16:10:42;25.00;24.60
578;DHT22;275;48.492;9.214;2023-07-31T16:13:09;25.10;24.90
578;DHT22;275;48.492;9.214;2023-07-31T16:15:36;25.30;24.50
578;DHT22;275;48.492;9.214;2023-07-31T16:18:03;24.90;25.10
578;DHT22;275;48.492;9.214;2023-07-31T16:20:29;25.30;24.90
578;DHT22;275;48.492;9.214;2023-07-31T16:22:56;25.50;24.80
578;DHT22;275;48.492;9.214;2023-07-31T16:25:24;25.50;24.70
578;DHT22;275;48.492;9.214;2023-07-31T16:27:51;26.00;24.20
578;DHT22;275;48.492;9.214;2023-07-31T16:30:18;26.20;23.60
578;DHT22;275;48.492;9.214;2023-07-31T16:32:46;26.10;24.00
578;DHT22;275;48.492;9.214;2023-07-31T16:35:15;26.60;23.40
578;DHT22;275;48.492;9.214;2023-07-31T16:37:41;26.60;23.40
578;DHT22;275;48.492;9.214;2023-07-31T16:40:10;26.90;23.30